Flight Track Log - Related Links

Times and Time Zones

All times are in EDT time to prevent confusion due to time zone crossing. See the N960DL flight status page for this flight to view local times or setup timezone preferences in your user account.

Time Position Orientation Groundspeed Altitude Reporting Facility
EDT Latitude Longitude Course Direction KTS MPH feet Rate Location/Type
Sat 11:33:32 AM 40.8333 -73.8833 180° South 198 228 2,400  Level New York TRACON
Sat 11:34:32 AM 40.8000 -73.9333 229° Southwest 241 277 5,400 2,500 Climbing New York TRACON
Sat 11:35:00 AM 40.4067 -74.0384 201° Southwest  Level FlightAware Approximate
Sat 11:35:32 AM 40.7333 -73.9667 201° Southwest 290 334 7,400  Level New York TRACON
Sat 11:36:00 AM 40.2852 -74.0991 201° Southwest  Level FlightAware Approximate
Sat 11:36:32 AM 40.6667 -74.0333 217° Southwest 295 339 10,300  Level New York TRACON
Sat 11:37:00 AM 40.1649 -74.1562 194° South  Level FlightAware Approximate
Sat 11:37:32 AM 40.6000 -74.1167 224° Southwest 344 396 11,600  Level New York TRACON
Sat 11:38:00 AM 40.0461 -74.2167 180° South  Level FlightAware Approximate
Sat 11:38:32 AM 40.5000 -74.1500 194° South 401 461 13,600  Level New York TRACON
Sat 11:39:53 AM 40.3436 -74.1831 189° South 437 503 16,100 2,746 Climbing New York Center
Sat 11:40:54 AM 40.2261 -74.2044 188° South 437 503 20,100 2,425 Climbing New York Center
Sat 11:43:06 AM 39.9833 -74.2703 192° South 391 450 23,900 1,679 Climbing Washington Center
Sat 11:44:07 AM 39.8906 -74.3583 216° Southwest 391 450 25,500 1,426 Climbing Washington Center
Sat 11:45:08 AM 39.7997 -74.4572 220° Southwest 415 478 26,800 1,339 Climbing Washington Center
Sat 11:46:08 AM 39.7194 -74.5636 226° Southwest 423 487 28,200 1,041 Climbing Washington Center
Sat 11:47:09 AM 39.6328 -74.6756 225° Southwest 428 493 28,900 893 Climbing Washington Center
Sat 11:48:09 AM 39.5483 -74.7894 226° Southwest 433 498 30,000 1,160 Climbing Washington Center
Sat 11:49:08 AM 39.4614 -74.9033 225° Southwest 439 505 31,200 1,059 Climbing Washington Center
Sat 11:50:08 AM 39.3767 -75.0169 226° Southwest 439 505 32,100 744 Climbing Washington Center
Sat 11:51:09 AM 39.2811 -75.1197 220° Southwest 439 505 32,700 756 Climbing Washington Center
Sat 11:52:07 AM 39.1586 -75.1767 200° South 444 511 33,600 661 Climbing Washington Center
Sat 11:53:07 AM 39.0356 -75.2283 198° South 458 527 34,000 198 Climbing Washington Center
Sat 11:54:08 AM 38.9150 -75.2822 199° South 464 534 34,000  Level Washington Center
Sat 11:55:09 AM 38.7878 -75.3333 197° South 479 551 34,000  Level Washington Center
Sat 11:56:07 AM 38.6775 -75.3817 199° South 479 551 34,000  Level Washington Center
Sat 11:57:07 AM 38.5631 -75.4272 197° South 487 560 34,000  Level Washington Center
Sat 11:58:08 AM 38.4128 -75.4911 198° South 482 555 34,000  Level Washington Center
Sat 11:59:08 AM 38.3003 -75.5389 198° South 482 555 34,000  Level Washington Center
Sat 12:00:08 PM 38.1836 -75.6050 204° Southwest 477 549 34,000  Level Washington Center
Sat 12:01:09 PM 38.0731 -75.6789 208° Southwest 463 533 34,000  Level Washington Center
Sat 12:02:09 PM 37.9478 -75.7656 209° Southwest 463 533 34,000  Level Washington Center
Sat 12:03:07 PM 37.8414 -75.8231 203° Southwest 468 539 34,000  Level Washington Center
Sat 12:04:07 PM 37.7161 -75.9069 208° Southwest 468 539 34,000  Level Washington Center
Sat 12:05:08 PM 37.5989 -75.9797 206° Southwest 468 539 34,000  Level Washington Center
Sat 12:06:09 PM 37.4819 -76.0525 206° Southwest 468 539 34,000  Level Washington Center
Sat 12:07:09 PM 37.3586 -76.1250 205° Southwest 468 539 34,000  Level Washington Center
Sat 12:08:08 PM 37.2436 -76.1764 200° South 478 550 34,000  Level Washington Center
Sat 12:09:08 PM 37.1161 -76.2325 199° South 490 564 34,000  Level Washington Center
Sat 12:10:09 PM 36.9864 -76.2914 200° South 490 564 34,000  Level Washington Center
Sat 12:11:07 PM 36.8589 -76.3500 200° South 490 564 34,000  Level Washington Center
Sat 12:12:08 PM 36.7333 -76.4058 200° South 490 564 34,000  Level Washington Center
Sat 12:13:09 PM 36.6078 -76.4639 200° South 490 564 34,000  Level Washington Center
Sat 12:14:09 PM 36.4778 -76.5219 200° South 490 564 34,000  Level Washington Center
Sat 12:15:07 PM 36.3503 -76.5744 198° South 495 570 34,000  Level Washington Center
Sat 12:16:07 PM 36.2203 -76.6297 199° South 495 570 34,000  Level Washington Center
Sat 12:17:08 PM 36.0947 -76.6844 199° South 489 563 34,000  Level Washington Center
Sat 12:18:09 PM 35.9669 -76.7417 200° South 489 563 34,000  Level Washington Center
Sat 12:19:07 PM 35.8411 -76.7936 199° South 489 563 34,000  Level Washington Center
Sat 12:20:07 PM 35.7156 -76.8506 200° South 489 563 34,000  Level Washington Center
Sat 12:21:08 PM 35.5958 -76.9025 199° South 482 555 34,000  Level Washington Center
Sat 12:22:09 PM 35.4722 -76.9567 200° South 477 549 34,000  Level Washington Center
Sat 12:23:09 PM 35.3464 -77.0106 199° South 477 549 34,000  Level Washington Center
Sat 12:24:07 PM 35.2228 -77.0617 199° South 471 542 34,000  Level Washington Center
Sat 12:25:08 PM 35.1011 -77.1153 200° South 466 536 34,000  Level Washington Center
Sat 12:26:09 PM 34.9814 -77.1639 198° South 466 536 34,000  Level Washington Center
Sat 12:27:07 PM 34.8597 -77.2144 199° South 466 536 34,000  Level Washington Center
Sat 12:28:07 PM 34.7275 -77.2725 200° South 466 536 34,000  Level Washington Center
Sat 12:29:08 PM 34.6081 -77.3206 198° South 461 531 34,000  Level Washington Center
Sat 12:30:09 PM 34.4861 -77.3733 200° South 461 531 34,000  Level Washington Center
Sat 12:32:33 PM 34.1925 -77.4978 199° South 443 510 34,000  Level Jacksonville Center
Sat 12:33:33 PM 34.0839 -77.5422 199° South 455 524 34,000  Level Jacksonville Center
Sat 12:34:33 PM 33.9669 -77.5919 199° South 455 524 34,000  Level Jacksonville Center
Sat 12:35:33 PM 33.8461 -77.6417 199° South 455 524 34,000  Level Jacksonville Center
Sat 12:36:33 PM 33.7311 -77.6886 199° South 455 524 34,000  Level Jacksonville Center
Sat 12:37:33 PM 33.6000 -77.7436 199° South 455 524 34,000  Level Jacksonville Center
Sat 12:38:33 PM 33.4953 -77.7869 199° South 455 524 34,000  Level Jacksonville Center
Sat 12:39:33 PM 33.3803 -77.8358 200° South 455 524 34,000  Level Jacksonville Center
Sat 12:40:33 PM 33.2611 -77.8800 197° South 450 518 34,000  Level Jacksonville Center
Sat 12:41:33 PM 33.1461 -77.9286 199° South 450 518 34,000  Level Jacksonville Center
Sat 12:42:33 PM 33.0289 -77.9722 197° South 445 512 34,000  Level Jacksonville Center
Sat 12:43:33 PM 32.9097 -78.0208 199° South 445 512 34,000  Level Jacksonville Center
Sat 12:44:33 PM 32.7883 -78.0669 198° South 450 518 34,000  Level Jacksonville Center
Sat 12:45:33 PM 32.6689 -78.1103 197° South 450 518 34,000  Level Jacksonville Center
Sat 12:46:33 PM 32.5497 -78.1561 198° South 456 525 34,000  Level Jacksonville Center
Sat 12:47:33 PM 32.4303 -78.1992 197° South 456 525 34,000  Level Jacksonville Center
Sat 12:48:33 PM 32.3131 -78.2469 199° South 456 525 34,000  Level Jacksonville Center
Sat 12:49:33 PM 32.1936 -78.2922 198° South 456 525 34,000  Level Jacksonville Center
Sat 12:50:33 PM 32.0761 -78.3350 197° South 456 525 34,000  Level Jacksonville Center
Sat 12:51:33 PM 31.9547 -78.3825 198° South 457 526 34,000  Level Jacksonville Center
Sat 12:52:33 PM 31.8331 -78.4278 198° South 451 519 34,000  Level Jacksonville Center
Sat 12:53:33 PM 31.7136 -78.4725 198° South 456 525 34,000 -50 Level Jacksonville Center
Sat 12:54:33 PM 31.5942 -78.5147 197° South 451 519 33,900  Descending Jacksonville Center
Sat 12:55:33 PM 31.4725 -78.5594 197° South 456 525 34,000 50 Climbing Jacksonville Center
Sat 12:56:33 PM 31.3528 -78.6039 198° South 456 525 34,000  Level Jacksonville Center
Sat 12:57:33 PM 31.2333 -78.6483 198° South 456 525 34,000  Level Jacksonville Center
Sat 12:58:33 PM 31.1097 -78.6950 198° South 456 525 34,000  Level Jacksonville Center
Sat 12:59:33 PM 30.9858 -78.7394 197° South 461 531 34,000  Level Jacksonville Center
Sat 01:00:33 PM 30.8706 -78.7881 200° South 454 522 34,000  Level Jacksonville Center
Sat 01:01:33 PM 30.7383 -78.8322 196° South 461 531 34,000  Level Jacksonville Center
Sat 01:02:33 PM 30.6208 -78.8761 198° South 461 531 34,000  Level Jacksonville Center
Sat 01:02:58 PM 30.5742 -78.8933 198° South 462 532 34,000  Level Miami Center
Sat 01:03:58 PM 30.4528 -78.9392 198° South 461 531 34,000  Level Miami Center
Sat 01:04:58 PM 30.3292 -78.9800 196° South 461 531 34,000  Level Miami Center
Sat 01:05:58 PM 30.1972 -79.0253 197° South 461 531 34,000  Level Miami Center
Sat 01:06:58 PM 30.0756 -79.0683 197° South 461 531 34,000  Level Miami Center
Sat 01:07:58 PM 29.9433 -79.1303 202° Southwest 461 531 34,000  Level Miami Center
Sat 01:08:58 PM 29.8114 -79.1633 192° South 474 545 34,000  Level Miami Center
Sat 01:09:58 PM 29.6856 -79.2014 195° South 474 545 34,000  Level Miami Center
Sat 01:10:58 PM 29.5539 -79.2269 190° South 481 554 34,000  Level Miami Center
Sat 01:11:58 PM 29.4219 -79.2600 192° South 481 554 34,000  Level Miami Center
Sat 01:12:58 PM 29.2961 -79.2928 193° South 481 554 34,000  Level Miami Center
Sat 01:13:58 PM 29.1622 -79.3256 192° South 486 559 34,000  Level Miami Center
Sat 01:14:58 PM 29.0342 -79.3583 193° South 481 554 34,000  Level Miami Center
Sat 01:15:58 PM 28.9044 -79.3908 192° South 481 554 34,000  Level Miami Center
Sat 01:16:58 PM 28.7744 -79.4211 192° South 481 554 34,000  Level Miami Center
Sat 01:17:58 PM 28.6425 -79.4536 192° South 487 560 34,000  Level Miami Center
Sat 01:18:58 PM 28.5103 -79.4883 193° South 487 560 34,000  Level Miami Center
Sat 01:19:58 PM 28.3803 -79.5206 192° South 487 560 34,000  Level Miami Center
Sat 01:20:58 PM 28.2503 -79.5506 191° South 487 560 34,000  Level Miami Center
Sat 01:21:58 PM 28.1183 -79.5828 192° South 492 566 34,000  Level Miami Center
Sat 01:22:58 PM 27.9861 -79.6172 193° South 487 560 34,000  Level Miami Center
Sat 01:23:58 PM 27.8708 -79.6450 192° South 481 554 34,000 -950 Level Miami Center
Sat 01:24:58 PM 27.7386 -79.6769 192° South 476 548 32,100 -2,550 Descending Miami Center
Sat 01:25:58 PM 27.5981 -79.7108 192° South 469 540 28,900 -3,150 Descending Miami Center
Sat 01:26:58 PM 27.4658 -79.7406 191° South 475 547 25,800 -2,650 Descending Miami Center
Sat 01:27:58 PM 27.3364 -79.7394 180° South 475 547 23,600 -1,900 Descending Miami Center
Sat 01:28:58 PM 27.2219 -79.7275 175° South 463 533 22,000 -1,900 Descending Miami Center
Sat 01:29:58 PM 27.1008 -79.7175 176° South 451 519 19,800 -1,950 Descending Miami Center
Sat 01:30:58 PM 26.9778 -79.7075 176° South 413 475 18,100 -1,700 Descending Miami Center
Sat 01:31:58 PM 26.8800 -79.6981 175° South 374 430 16,400 -1,800 Descending Miami Center
Sat 01:32:58 PM 26.7756 -79.6886 175° South 367 422 14,500 -1,800 Descending Miami Center
Sat 01:33:58 PM 26.6853 -79.7119 193° South 353 406 12,800 -1,800 Descending Miami Center
Sat 01:34:58 PM 26.5989 -79.7561 205° Southwest 336 387 10,900 -1,826 Descending Miami Center
Sat 01:35:53 PM 26.5189 -79.7939 203° Southwest 326 375 9,300 -1,500 Descending Miami Center
Sat 01:36:54 PM 26.4344 -79.8333 203° Southwest 316 364 8,000 -605 Descending Miami Center
Sat 01:38:02 PM 26.3603 -79.8803 210° Southwest 267 307 8,000 -341 Level Miami Center
Sat 01:38:57 PM 26.3092 -79.9253 218° Southwest 242 278 7,300 -492 Descending Miami Center
Sat 01:40:04 PM 26.2517 -79.9817 221° Southwest 239 275 7,000 -141 Descending Miami Center
Sat 01:41:05 PM 26.2025 -80.0314 222° Southwest 239 275 7,000 -368 Level Miami Center
Sat 01:41:58 PM 26.1703 -80.0769 232° Southwest 242 278 6,300 -513 Descending Miami Center
Sat 01:43:02 PM 26.1478 -80.1503 251° West 229 264 6,000 -250 Descending Miami Center
Sat 01:43:58 PM 26.1483 -80.2103 271° West 226 260 5,800 -879 Descending Miami Center
Sat 01:44:58 PM 26.1469 -80.2797 269° West 226 260 4,300 -844 Descending Miami Center
Sat 01:46:06 PM 26.1450 -80.3608 268° West 216 249 4,000 -140 Descending Miami Center
Sat 01:47:07 PM 26.1456 -80.4233 271° West 197 227 4,000  Level Miami Center
Sat 01:48:09 PM 26.1358 -80.4831 260° West 191 220 4,000  Level Miami Center
Sat 01:49:10 PM 26.0989 -80.4564 147° Southeast 175 201 4,000 -393 Level Miami Center
Sat 01:50:11 PM 26.0769 -80.4072 116° Southeast 171 197 3,200 -541 Descending Miami Center
Sat 01:51:12 PM 26.0742 -80.3542 93° East 167 192 2,900 -295 Descending Miami Center

Login

Don't have an account? Register now (free) for customized features, flight alerts, and more!